Simpsonville, Vermont
Current Conditions -  °F | °C
As of 12:54 PM on Thursday 30 Oct 2014 (Local Time) from KVSF Reporting Station
Clear Clear  
Wind Chill: 52°   Ceiling: Unl
Heat Index: 52°   Visibility: 10mi
Dew Point: 34°   Wind: 13mph
Humidity: 50%   Direction: 290°WNW
Pressure: 29.93"   Gusts: 20mph
Location:  43.0642°N, 72.6668°W
Report Text: KVSF 301654Z AUTO 29011G17KT 10SM CLR 11/01 A2993 RMK AO2 SLP141 T01110011
Loading
Personal Weather Stations






























Interactive Weather Map
Tropical Storm Tracking
New forecast layout! Learn more

10-Day Weather Forecast

Advertisements
Track Severe Weather on mobile